createdAt,value
2023-03-25T00:00:16.911Z,10.21
2023-03-25T00:03:04.607Z,10.18
2023-03-25T00:05:31.830Z,10.14
2023-03-25T00:07:59.005Z,10.10
2023-03-25T00:10:26.338Z,10.07
2023-03-25T00:12:53.483Z,10.03
2023-03-25T00:15:22.455Z,9.97
2023-03-25T00:17:49.708Z,9.94
2023-03-25T00:20:16.978Z,9.94
2023-03-25T00:22:45.051Z,9.92
2023-03-25T00:25:19.241Z,9.90
2023-03-25T00:27:49.002Z,9.88
2023-03-25T00:30:17.464Z,9.87
2023-03-25T00:32:53.165Z,9.85
2023-03-25T00:35:21.289Z,9.82
2023-03-25T00:37:52.530Z,9.79
2023-03-25T00:40:19.809Z,9.77
2023-03-25T00:42:50.576Z,9.75
2023-03-25T00:45:17.975Z,9.71
2023-03-25T00:47:45.176Z,9.69
2023-03-25T00:50:12.641Z,9.66
2023-03-25T00:52:39.861Z,9.64
2023-03-25T00:55:07.997Z,9.62
2023-03-25T00:57:36.292Z,9.60
2023-03-25T01:00:09.999Z,9.59
2023-03-25T01:02:39.609Z,9.57
2023-03-25T01:05:09.340Z,9.56
2023-03-25T01:07:37.745Z,9.53
2023-03-25T01:10:07.076Z,9.51
2023-03-25T01:12:34.224Z,9.47
2023-03-25T01:15:01.771Z,9.42
2023-03-25T01:17:28.907Z,9.40
2023-03-25T01:19:56.221Z,9.38
2023-03-25T01:22:23.499Z,9.38
2023-03-25T01:24:50.762Z,9.38
2023-03-25T01:27:17.885Z,9.38
2023-03-25T01:29:44.994Z,9.37
2023-03-25T01:32:12.171Z,9.37
2023-03-25T01:34:40.093Z,9.35
2023-03-25T01:37:08.002Z,9.34
2023-03-25T01:39:35.206Z,9.31
2023-03-25T01:42:02.870Z,9.29
2023-03-25T01:44:29.989Z,9.25
2023-03-25T01:47:01.816Z,9.22
2023-03-25T01:49:39.268Z,9.20
2023-03-25T01:52:14.388Z,9.19
2023-03-25T01:54:42.783Z,9.19
2023-03-25T01:57:17.853Z,9.20
2023-03-25T01:59:45.157Z,9.20
2023-03-25T02:02:15.810Z,9.17
2023-03-25T02:04:59.999Z,9.15
2023-03-25T02:07:35.507Z,9.13
2023-03-25T02:10:06.940Z,9.11
2023-03-25T02:12:34.500Z,9.07
2023-03-25T02:15:04.693Z,9.03
2023-03-25T02:17:59.239Z,9.00
2023-03-25T02:20:43.692Z,8.99
2023-03-25T02:23:14.181Z,8.99
2023-03-25T02:26:09.653Z,9.00
2023-03-25T02:29:24.140Z,8.99
2023-03-25T02:32:13.979Z,8.96
2023-03-25T02:34:53.736Z,8.93
2023-03-25T02:37:29.809Z,8.90
2023-03-25T02:40:16.731Z,8.86
2023-03-25T02:42:54.370Z,8.81
2023-03-25T02:45:32.770Z,8.80
2023-03-25T02:48:05.914Z,8.80
2023-03-25T02:50:41.125Z,8.80
2023-03-25T02:53:13.259Z,8.82
2023-03-25T02:55:42.545Z,8.84
2023-03-25T02:58:13.526Z,8.85
2023-03-25T03:00:40.956Z,8.84
2023-03-25T03:03:09.188Z,8.83
2023-03-25T03:05:47.034Z,8.82
2023-03-25T03:08:39.270Z,8.79
2023-03-25T03:11:12.434Z,8.77
2023-03-25T03:14:11.035Z,8.75
2023-03-25T03:16:50.184Z,8.73
2023-03-25T03:19:38.969Z,8.70
2023-03-25T03:22:14.313Z,8.66
2023-03-25T03:24:49.298Z,8.65
2023-03-25T03:27:32.967Z,8.66
2023-03-25T03:30:13.603Z,8.68
2023-03-25T03:33:01.487Z,8.68
2023-03-25T03:35:38.491Z,8.67
2023-03-25T03:38:11.590Z,8.66
2023-03-25T03:40:43.754Z,8.64
2023-03-25T03:43:17.947Z,8.62
2023-03-25T03:45:51.905Z,8.61
2023-03-25T03:48:26.486Z,8.61
2023-03-25T03:51:08.035Z,8.60
2023-03-25T03:53:42.547Z,8.59
2023-03-25T03:56:32.319Z,8.59
2023-03-25T03:59:02.574Z,8.59
2023-03-25T04:01:46.418Z,8.58
2023-03-25T04:04:19.017Z,8.56
2023-03-25T04:06:57.455Z,8.52
2023-03-25T04:09:43.676Z,8.50
2023-03-25T04:12:24.699Z,8.49
2023-03-25T04:14:53.618Z,8.50
2023-03-25T04:17:20.916Z,8.53
2023-03-25T04:19:49.053Z,8.55
2023-03-25T04:22:18.613Z,8.56
2023-03-25T04:24:45.908Z,8.58
2023-03-25T04:27:13.799Z,8.59
2023-03-25T04:29:40.984Z,8.59
2023-03-25T04:32:10.919Z,8.57
2023-03-25T04:34:38.446Z,8.57
2023-03-25T04:37:05.860Z,8.55
2023-03-25T04:39:33.062Z,8.51
2023-03-25T04:42:03.891Z,8.49
2023-03-25T04:44:33.832Z,8.49
2023-03-25T04:47:02.498Z,8.50
2023-03-25T04:49:29.956Z,8.50
2023-03-25T04:51:58.119Z,8.51
2023-03-25T04:54:25.419Z,8.50
2023-03-25T04:56:52.693Z,8.44
2023-03-25T04:59:21.458Z,8.37
2023-03-25T05:01:49.429Z,8.32
2023-03-25T05:04:18.418Z,8.26
2023-03-25T05:06:48.611Z,8.24
2023-03-25T05:09:24.846Z,8.24
2023-03-25T05:11:54.128Z,8.23
2023-03-25T05:14:22.219Z,8.20
2023-03-25T05:16:49.849Z,8.19
2023-03-25T05:19:19.124Z,8.19
2023-03-25T05:21:46.874Z,8.15
2023-03-25T05:24:14.208Z,8.12
2023-03-25T05:26:42.387Z,8.08
2023-03-25T05:29:14.721Z,8.05
2023-03-25T05:31:46.493Z,8.01
2023-03-25T05:34:14.852Z,8.00
2023-03-25T05:36:42.255Z,8.03
2023-03-25T05:39:11.127Z,8.06
2023-03-25T05:41:41.744Z,8.10
2023-03-25T05:44:10.517Z,8.13
2023-03-25T05:46:37.891Z,8.14
2023-03-25T05:49:05.016Z,8.12
2023-03-25T05:51:37.778Z,8.11
2023-03-25T05:54:11.456Z,8.11
2023-03-25T05:56:40.236Z,8.13
2023-03-25T05:59:08.477Z,8.15
2023-03-25T06:01:37.905Z,8.19
2023-03-25T06:04:10.354Z,8.24
2023-03-25T06:06:37.647Z,8.28
2023-03-25T06:09:05.077Z,8.30
2023-03-25T06:11:38.742Z,8.32
2023-03-25T06:14:06.928Z,8.30
2023-03-25T06:16:35.702Z,8.30
2023-03-25T06:19:03.068Z,8.32
2023-03-25T06:21:33.357Z,8.36
2023-03-25T06:24:02.049Z,8.41
2023-03-25T06:26:29.672Z,8.44
2023-03-25T06:28:56.826Z,8.46
2023-03-25T06:31:28.908Z,8.49
2023-03-25T06:33:56.438Z,8.52
2023-03-25T06:36:25.918Z,8.53
2023-03-25T06:38:54.265Z,8.55
2023-03-25T06:41:25.978Z,8.59
2023-03-25T06:44:10.736Z,8.61
2023-03-25T06:46:44.390Z,8.64
2023-03-25T06:49:11.587Z,8.67
2023-03-25T06:51:38.741Z,8.71
2023-03-25T06:54:06.065Z,8.74
2023-03-25T06:56:33.448Z,8.73
2023-03-25T06:59:00.635Z,8.71
2023-03-25T07:01:28.175Z,8.71
2023-03-25T07:03:55.394Z,8.73
2023-03-25T07:06:24.172Z,8.79
2023-03-25T07:08:52.234Z,8.83
2023-03-25T07:11:26.324Z,8.88
2023-03-25T07:13:54.245Z,8.94
2023-03-25T07:16:24.376Z,8.95
2023-03-25T07:18:56.804Z,8.98
2023-03-25T07:21:24.208Z,9.02
2023-03-25T07:23:51.818Z,9.03
2023-03-25T07:26:19.125Z,9.06
2023-03-25T07:28:48.181Z,9.08
2023-03-25T07:31:16.927Z,9.10
2023-03-25T07:33:44.493Z,9.16
2023-03-25T07:36:12.862Z,9.20
2023-03-25T07:38:40.150Z,9.22
2023-03-25T07:41:09.509Z,9.26
2023-03-25T07:43:36.894Z,9.28
2023-03-25T07:46:24.190Z,9.33
2023-03-25T07:48:51.616Z,9.41
2023-03-25T07:51:18.876Z,9.48
2023-03-25T07:53:46.550Z,9.59
2023-03-25T07:56:14.504Z,9.69
2023-03-25T07:58:42.209Z,9.80
2023-03-25T08:01:09.263Z,9.94
2023-03-25T08:03:38.863Z,10.10
2023-03-25T08:06:07.012Z,10.21
2023-03-25T08:08:34.900Z,10.32
2023-03-25T08:11:02.081Z,10.35
2023-03-25T08:13:30.047Z,10.38
2023-03-25T08:15:57.538Z,10.37
2023-03-25T08:18:24.921Z,10.35
2023-03-25T08:20:52.407Z,10.35
2023-03-25T08:23:20.707Z,10.36
2023-03-25T08:25:49.936Z,10.38
2023-03-25T08:28:23.447Z,10.39
2023-03-25T08:30:55.233Z,10.41
2023-03-25T08:33:27.448Z,10.45
2023-03-25T08:35:57.390Z,10.50
2023-03-25T08:38:25.525Z,10.54
2023-03-25T08:40:52.805Z,10.58
2023-03-25T08:43:19.921Z,10.63
2023-03-25T08:45:47.132Z,10.66
2023-03-25T08:48:14.196Z,10.68
2023-03-25T08:50:41.194Z,10.70
2023-03-25T08:53:08.397Z,10.72
2023-03-25T08:55:35.507Z,10.73
2023-03-25T08:58:03.957Z,10.74
2023-03-25T09:00:31.159Z,10.74
2023-03-25T09:02:59.668Z,10.73
2023-03-25T09:05:29.517Z,10.72
2023-03-25T09:07:56.757Z,10.71
2023-03-25T09:10:24.030Z,10.69
2023-03-25T09:12:51.825Z,10.68
2023-03-25T09:15:18.973Z,10.68
2023-03-25T09:17:46.157Z,10.67
2023-03-25T09:20:13.498Z,10.68
2023-03-25T09:22:41.191Z,10.67
2023-03-25T09:25:09.159Z,10.66
2023-03-25T09:27:36.848Z,10.68
2023-03-25T09:30:05.024Z,10.70
2023-03-25T09:32:33.409Z,10.71
2023-03-25T09:35:00.577Z,10.73
2023-03-25T09:37:27.694Z,10.73
2023-03-25T09:39:54.932Z,10.74
2023-03-25T09:42:37.603Z,10.78
2023-03-25T09:45:30.782Z,10.82
2023-03-25T09:48:22.665Z,10.84
2023-03-25T09:50:49.763Z,10.84
2023-03-25T09:53:32.377Z,10.85
2023-03-25T09:56:00.679Z,10.85
2023-03-25T09:58:40.375Z,10.85
2023-03-25T10:01:35.056Z,10.88
2023-03-25T10:04:09.445Z,10.92
2023-03-25T10:06:48.858Z,10.95
2023-03-25T10:09:25.090Z,10.98
2023-03-25T10:11:54.960Z,10.99
2023-03-25T10:14:26.902Z,11.00
2023-03-25T10:17:29.054Z,11.00
2023-03-25T10:20:07.311Z,11.00
2023-03-25T10:22:46.787Z,11.00
2023-03-25T10:25:19.400Z,10.98
2023-03-25T10:27:51.925Z,10.98
2023-03-25T10:30:23.365Z,11.00
2023-03-25T10:32:54.832Z,11.04
2023-03-25T10:35:27.365Z,11.10
2023-03-25T10:38:08.772Z,11.16
2023-03-25T10:40:44.875Z,11.17
2023-03-25T10:43:18.604Z,11.18
2023-03-25T10:45:48.171Z,11.20
2023-03-25T10:48:28.691Z,11.22
2023-03-25T10:51:09.856Z,11.22
2023-03-25T10:53:38.108Z,11.21
2023-03-25T10:56:11.568Z,11.19
2023-03-25T10:58:41.781Z,11.15
2023-03-25T11:01:14.673Z,11.12
2023-03-25T11:03:43.913Z,11.08
2023-03-25T11:06:26.792Z,11.10
2023-03-25T11:09:30.728Z,11.18
2023-03-25T11:12:04.754Z,11.23
2023-03-25T11:14:38.693Z,11.28
2023-03-25T11:17:17.257Z,11.36
2023-03-25T11:20:02.086Z,11.41
2023-03-25T11:22:31.963Z,11.43
2023-03-25T11:25:06.826Z,11.40
2023-03-25T11:27:45.465Z,11.35
2023-03-25T11:30:19.395Z,11.31
2023-03-25T11:32:59.301Z,11.39
2023-03-25T11:35:29.221Z,11.53
2023-03-25T11:38:01.584Z,11.71
2023-03-25T11:40:32.038Z,11.86
2023-03-25T11:43:01.314Z,11.89
2023-03-25T11:45:45.535Z,11.93
2023-03-25T11:48:21.668Z,11.88
2023-03-25T11:50:58.458Z,11.80
2023-03-25T11:53:27.740Z,11.73
2023-03-25T11:55:57.823Z,11.69
2023-03-25T11:58:31.835Z,11.69
2023-03-25T12:01:05.561Z,11.74
2023-03-25T12:03:35.401Z,11.81
2023-03-25T12:06:16.762Z,11.91
2023-03-25T12:08:53.002Z,11.94
2023-03-25T12:11:42.714Z,11.94
2023-03-25T12:14:29.242Z,11.93
2023-03-25T12:17:18.150Z,11.92
2023-03-25T12:19:56.283Z,11.89
2023-03-25T12:22:35.463Z,11.87
2023-03-25T12:25:14.132Z,11.84
2023-03-25T12:27:49.658Z,11.83
2023-03-25T12:30:32.217Z,11.83
2023-03-25T12:32:59.360Z,11.83
2023-03-25T12:35:46.168Z,11.81
2023-03-25T12:38:13.361Z,11.79
2023-03-25T12:40:43.398Z,11.75
2023-03-25T12:43:29.674Z,11.67
2023-03-25T12:46:20.958Z,11.53
2023-03-25T12:48:52.819Z,11.20
2023-03-25T12:51:29.218Z,10.98
2023-03-25T12:54:30.160Z,10.85
2023-03-25T12:57:10.570Z,10.79
2023-03-25T13:00:08.142Z,10.82
2023-03-25T13:03:05.876Z,10.86
2023-03-25T13:05:52.437Z,10.91
2023-03-25T13:08:38.926Z,10.94
2023-03-25T13:11:18.337Z,10.93
2023-03-25T13:13:49.490Z,10.91
2023-03-25T13:16:25.168Z,10.91
2023-03-25T13:19:06.633Z,10.93
2023-03-25T13:21:39.411Z,11.04
2023-03-25T13:24:16.321Z,11.17
2023-03-25T13:26:47.463Z,11.32
2023-03-25T13:29:27.413Z,11.45
2023-03-25T13:31:57.291Z,11.60
2023-03-25T13:34:36.324Z,11.69
2023-03-25T13:37:18.792Z,11.78
2023-03-25T13:39:55.989Z,11.88
2023-03-25T13:42:32.859Z,11.95
2023-03-25T13:45:02.698Z,11.97
2023-03-25T13:47:35.413Z,11.97
2023-03-25T13:50:10.625Z,11.94
2023-03-25T13:52:43.422Z,11.91
2023-03-25T13:55:22.864Z,11.87
2023-03-25T13:58:11.872Z,11.85
2023-03-25T14:00:39.003Z,11.79
2023-03-25T14:03:36.820Z,11.76
2023-03-25T14:06:55.400Z,11.69
2023-03-25T14:09:56.836Z,11.62
2023-03-25T14:12:29.156Z,11.59
2023-03-25T14:15:05.180Z,11.54
2023-03-25T14:17:36.334Z,11.53
2023-03-25T14:20:08.450Z,11.49
2023-03-25T14:22:41.365Z,11.47
2023-03-25T14:25:22.307Z,11.46
2023-03-25T14:27:51.515Z,11.44
2023-03-25T14:30:28.660Z,11.42
2023-03-25T14:32:56.416Z,11.40
2023-03-25T14:35:32.914Z,11.38
2023-03-25T14:38:06.708Z,11.34
2023-03-25T14:40:54.903Z,11.30
2023-03-25T14:43:46.840Z,11.27
2023-03-25T14:46:14.616Z,11.22
2023-03-25T14:48:47.179Z,11.18
2023-03-25T14:51:26.784Z,11.14
2023-03-25T14:54:10.713Z,11.10
2023-03-25T14:56:43.659Z,11.06
2023-03-25T14:59:17.525Z,11.02
2023-03-25T15:01:46.921Z,10.97
2023-03-25T15:04:18.236Z,10.92
2023-03-25T15:06:49.199Z,10.87
2023-03-25T15:09:18.351Z,10.83
2023-03-25T15:11:54.943Z,10.80
2023-03-25T15:14:27.214Z,10.76
2023-03-25T15:17:05.040Z,10.68
2023-03-25T15:20:09.180Z,10.58
2023-03-25T15:22:37.038Z,10.49
2023-03-25T15:25:20.839Z,10.45
2023-03-25T15:28:00.713Z,10.47
2023-03-25T15:30:30.708Z,10.49
2023-03-25T15:33:21.615Z,10.51
2023-03-25T15:36:10.041Z,10.52
2023-03-25T15:39:12.837Z,10.49
2023-03-25T15:42:14.974Z,10.48
2023-03-25T15:44:48.225Z,10.46
2023-03-25T15:47:57.227Z,10.44
2023-03-25T15:50:31.881Z,10.39
2023-03-25T15:53:27.659Z,10.35
2023-03-25T15:56:08.031Z,10.32
2023-03-25T15:58:35.273Z,10.30
2023-03-25T16:01:27.380Z,10.30
2023-03-25T16:04:04.400Z,10.30
2023-03-25T16:06:35.405Z,10.30
2023-03-25T16:09:03.389Z,10.27
2023-03-25T16:11:31.514Z,10.24
2023-03-25T16:14:12.586Z,10.18
2023-03-25T16:16:45.329Z,10.14
2023-03-25T16:19:18.736Z,10.10
2023-03-25T16:21:51.859Z,10.08
2023-03-25T16:24:23.824Z,10.09
2023-03-25T16:26:51.303Z,10.08
2023-03-25T16:29:19.863Z,10.05
2023-03-25T16:31:57.648Z,10.01
2023-03-25T16:34:26.888Z,9.99
2023-03-25T16:36:55.166Z,9.95
2023-03-25T16:39:24.775Z,9.91
2023-03-25T16:41:59.908Z,9.90
2023-03-25T16:44:27.108Z,9.87
2023-03-25T16:46:54.475Z,9.84
2023-03-25T16:49:29.981Z,9.81
2023-03-25T16:51:58.499Z,9.78
2023-03-25T16:54:28.449Z,9.74
2023-03-25T16:56:56.186Z,9.72
2023-03-25T16:59:33.768Z,9.71
2023-03-25T17:02:02.437Z,9.69
2023-03-25T17:04:39.323Z,9.67
2023-03-25T17:07:12.554Z,9.67
2023-03-25T17:09:43.065Z,9.66
2023-03-25T17:12:16.658Z,9.66
2023-03-25T17:14:46.957Z,9.66
2023-03-25T17:17:28.250Z,9.65
2023-03-25T17:19:56.413Z,9.60
2023-03-25T17:22:33.348Z,9.57
2023-03-25T17:25:28.353Z,9.53
2023-03-25T17:27:57.388Z,9.53
2023-03-25T17:30:41.908Z,9.54
2023-03-25T17:33:11.687Z,9.57
2023-03-25T17:35:40.216Z,9.59
2023-03-25T17:38:09.165Z,9.59
2023-03-25T17:40:36.394Z,9.56
2023-03-25T17:43:03.594Z,9.52
2023-03-25T17:45:31.062Z,9.50
2023-03-25T17:47:58.315Z,9.51
2023-03-25T17:50:27.651Z,9.54
2023-03-25T17:52:55.270Z,9.56
2023-03-25T17:55:22.492Z,9.59
2023-03-25T17:57:50.134Z,9.60
2023-03-25T18:00:18.841Z,9.58
2023-03-25T18:02:47.295Z,9.56
2023-03-25T18:05:15.631Z,9.54
2023-03-25T18:07:43.014Z,9.50
2023-03-25T18:10:17.124Z,9.45
2023-03-25T18:12:44.358Z,9.42
2023-03-25T18:15:11.884Z,9.38
2023-03-25T18:17:39.724Z,9.38
2023-03-25T18:20:15.821Z,9.38
2023-03-25T18:22:43.175Z,9.38
2023-03-25T18:25:10.734Z,9.38
2023-03-25T18:27:43.875Z,9.36
2023-03-25T18:30:20.362Z,9.34
2023-03-25T18:32:47.471Z,9.30
2023-03-25T18:35:14.697Z,9.28
2023-03-25T18:37:42.051Z,9.26
2023-03-25T18:40:21.139Z,9.24
2023-03-25T18:42:48.307Z,9.21
2023-03-25T18:45:15.590Z,9.20
2023-03-25T18:47:42.829Z,9.20
2023-03-25T18:50:48.458Z,9.17
2023-03-25T18:53:15.640Z,9.15
2023-03-25T18:55:43.307Z,9.13
2023-03-25T18:58:25.815Z,9.10
2023-03-25T19:00:54.357Z,9.06
2023-03-25T19:03:30.854Z,9.06
2023-03-25T19:05:59.427Z,9.05
2023-03-25T19:08:27.422Z,9.05
2023-03-25T19:11:01.783Z,9.05
2023-03-25T19:13:35.748Z,9.07
2023-03-25T19:16:02.880Z,9.08
2023-03-25T19:18:33.052Z,9.08
2023-03-25T19:21:00.842Z,9.05
2023-03-25T19:23:28.136Z,9.04
2023-03-25T19:25:58.122Z,9.01
2023-03-25T19:28:25.486Z,8.99
2023-03-25T19:30:54.688Z,8.95
2023-03-25T19:33:22.269Z,8.93
2023-03-25T19:35:55.700Z,8.92
2023-03-25T19:38:23.097Z,8.92
2023-03-25T19:41:00.306Z,8.91
2023-03-25T19:43:27.743Z,8.89
2023-03-25T19:45:58.640Z,8.87
2023-03-25T19:48:26.061Z,8.86
2023-03-25T19:50:55.287Z,8.84
2023-03-25T19:53:24.415Z,8.83
2023-03-25T19:55:51.903Z,8.82
2023-03-25T19:58:20.483Z,8.79
2023-03-25T20:00:47.884Z,8.78
2023-03-25T20:03:15.015Z,8.76
2023-03-25T20:05:42.825Z,8.73
2023-03-25T20:08:10.034Z,8.73
2023-03-25T20:10:39.944Z,8.73
2023-03-25T20:13:07.321Z,8.74
2023-03-25T20:15:34.431Z,8.73
2023-03-25T20:18:01.587Z,8.75
2023-03-25T20:20:28.732Z,8.76
2023-03-25T20:22:56.085Z,8.75
2023-03-25T20:25:23.222Z,8.73
2023-03-25T20:27:50.412Z,8.74
2023-03-25T20:30:19.847Z,8.74
2023-03-25T20:32:48.780Z,8.74
2023-03-25T20:35:18.519Z,8.75
2023-03-25T20:37:49.076Z,8.76
2023-03-25T20:40:18.245Z,8.77
2023-03-25T20:42:47.544Z,8.77
2023-03-25T20:45:17.260Z,8.74
2023-03-25T20:47:45.186Z,8.72
2023-03-25T20:50:14.678Z,8.72
2023-03-25T20:52:42.341Z,8.72
2023-03-25T20:55:10.189Z,8.73
2023-03-25T20:57:37.813Z,8.73
2023-03-25T21:00:07.187Z,8.73
2023-03-25T21:02:34.630Z,8.73
2023-03-25T21:05:03.408Z,8.74
2023-03-25T21:07:32.325Z,8.74
2023-03-25T21:09:59.680Z,8.72
2023-03-25T21:12:40.365Z,8.71
2023-03-25T21:15:09.340Z,8.68
2023-03-25T21:17:37.217Z,8.65
2023-03-25T21:20:07.681Z,8.63
2023-03-25T21:22:42.930Z,8.61
2023-03-25T21:25:11.382Z,8.62
2023-03-25T21:27:39.866Z,8.62
2023-03-25T21:30:12.339Z,8.64
2023-03-25T21:32:39.599Z,8.65
2023-03-25T21:35:08.142Z,8.65
2023-03-25T21:37:38.914Z,8.66
2023-03-25T21:40:10.289Z,8.66
2023-03-25T21:42:38.846Z,8.67
2023-03-25T21:45:10.801Z,8.67
2023-03-25T21:47:37.911Z,8.67
2023-03-25T21:50:10.155Z,8.67
2023-03-25T21:52:43.186Z,8.67
2023-03-25T21:55:11.213Z,8.67
2023-03-25T21:57:39.702Z,8.67
2023-03-25T22:00:09.698Z,8.67
2023-03-25T22:02:39.577Z,8.68
2023-03-25T22:05:07.736Z,8.67
2023-03-25T22:07:34.825Z,8.63
2023-03-25T22:10:02.036Z,8.61
2023-03-25T22:12:30.141Z,8.60
2023-03-25T22:14:57.691Z,8.60
2023-03-25T22:17:25.147Z,8.60
2023-03-25T22:19:52.607Z,8.59
2023-03-25T22:22:21.867Z,8.60
2023-03-25T22:24:50.389Z,8.61
2023-03-25T22:27:17.728Z,8.59
2023-03-25T22:29:45.063Z,8.57
2023-03-25T22:32:12.127Z,8.53
2023-03-25T22:34:39.681Z,8.50
2023-03-25T22:37:06.979Z,8.48
2023-03-25T22:39:34.162Z,8.48
2023-03-25T22:42:01.572Z,8.48
2023-03-25T22:44:28.671Z,8.47
2023-03-25T22:46:56.457Z,8.45
2023-03-25T22:49:23.730Z,8.43
2023-03-25T22:51:51.631Z,8.42
2023-03-25T22:54:18.765Z,8.40
2023-03-25T22:56:46.114Z,8.38
2023-03-25T22:59:15.380Z,8.36
2023-03-25T23:01:43.449Z,8.35
2023-03-25T23:04:11.081Z,8.34
2023-03-25T23:06:38.777Z,8.33
2023-03-25T23:09:08.541Z,8.34
2023-03-25T23:11:37.366Z,8.36
2023-03-25T23:14:08.586Z,8.37
2023-03-25T23:16:36.799Z,8.38
2023-03-25T23:19:06.301Z,8.36
2023-03-25T23:21:34.671Z,8.32
2023-03-25T23:24:04.719Z,8.29
2023-03-25T23:26:39.548Z,8.26
2023-03-25T23:29:09.368Z,8.27
2023-03-25T23:31:38.153Z,8.26
2023-03-25T23:34:08.174Z,8.26
2023-03-25T23:36:37.784Z,8.28
2023-03-25T23:39:06.854Z,8.28
2023-03-25T23:41:34.735Z,8.27
2023-03-25T23:44:02.266Z,8.23
2023-03-25T23:46:29.720Z,8.21
2023-03-25T23:49:02.421Z,8.20
2023-03-25T23:51:34.179Z,8.20
2023-03-25T23:54:02.500Z,8.19
2023-03-25T23:56:30.635Z,8.20
2023-03-25T23:58:59.233Z,8.19
